createdAt,value
2023-02-11T00:05:02.541Z,29.40
2023-02-11T00:07:31.117Z,28.08
2023-02-11T00:10:03.409Z,30.65
2023-02-11T00:12:30.818Z,30.13
2023-02-11T00:14:57.896Z,29.17
2023-02-11T00:17:27.230Z,29.52
2023-02-11T00:19:56.088Z,29.67
2023-02-11T00:22:28.778Z,29.58
2023-02-11T00:24:59.198Z,29.98
2023-02-11T00:27:29.969Z,30.20
2023-02-11T00:30:05.444Z,31.55
2023-02-11T00:32:35.394Z,29.35
2023-02-11T00:35:03.075Z,32.17
2023-02-11T00:37:36.400Z,31.60
2023-02-11T00:40:14.070Z,31.17
2023-02-11T00:42:41.385Z,31.05
2023-02-11T00:45:11.813Z,29.83
2023-02-11T00:47:41.029Z,30.67
2023-02-11T00:50:11.252Z,32.42
2023-02-11T00:52:44.110Z,31.10
2023-02-11T00:55:19.688Z,32.90
2023-02-11T00:57:46.854Z,32.83
2023-02-11T01:00:17.160Z,31.63
2023-02-11T01:02:44.400Z,29.42
2023-02-11T01:05:11.652Z,30.80
2023-02-11T01:07:44.396Z,33.65
2023-02-11T01:10:13.610Z,31.38
2023-02-11T01:12:40.784Z,30.52
2023-02-11T01:15:11.425Z,30.23
2023-02-11T01:17:42.043Z,34.03
2023-02-11T01:20:14.259Z,29.75
2023-02-11T01:22:43.424Z,30.95
2023-02-11T01:25:13.817Z,32.42
2023-02-11T01:27:43.861Z,32.55
2023-02-11T01:30:12.769Z,31.50
2023-02-11T01:36:13.138Z,30.85
2023-02-11T01:38:44.425Z,30.95
2023-02-11T01:41:21.097Z,33.53
2023-02-11T01:43:49.163Z,33.67
2023-02-11T01:46:24.054Z,32.50
2023-02-11T01:48:58.474Z,33.50
2023-02-11T01:51:31.332Z,35.10
2023-02-11T01:54:17.624Z,33.63
2023-02-11T01:57:06.006Z,34.90
2023-02-11T01:59:39.627Z,32.97
2023-02-11T02:02:09.278Z,33.83
2023-02-11T02:04:45.960Z,33.67
2023-02-11T02:07:20.179Z,35.58
2023-02-11T02:09:53.088Z,33.85
2023-02-11T02:12:25.470Z,36.55
2023-02-11T02:14:52.625Z,33.80
2023-02-11T02:17:38.625Z,32.53
2023-02-11T02:20:12.990Z,35.70
2023-02-11T02:22:58.982Z,36.00
2023-02-11T02:25:28.760Z,33.20
2023-02-11T02:28:16.558Z,35.30
2023-02-11T02:30:43.760Z,31.95
2023-02-11T02:33:23.220Z,31.67
2023-02-11T02:36:01.768Z,35.40
2023-02-11T02:38:31.974Z,34.60
2023-02-11T02:41:15.725Z,35.97
2023-02-11T02:43:44.573Z,35.40
2023-02-11T02:46:23.409Z,31.95
2023-02-11T02:48:52.532Z,33.83
2023-02-11T02:51:38.624Z,34.25
2023-02-11T02:54:24.851Z,34.13
2023-02-11T02:57:26.966Z,34.42
2023-02-11T03:00:15.812Z,32.63
2023-02-11T03:02:58.765Z,33.65
2023-02-11T03:05:40.625Z,35.50
2023-02-11T03:08:10.602Z,34.33
2023-02-11T03:10:47.950Z,32.78
2023-02-11T03:13:21.898Z,27.27
2023-02-11T03:15:51.863Z,34.78
2023-02-11T03:18:25.077Z,33.55
2023-02-11T03:20:55.266Z,33.03
2023-02-11T03:23:42.649Z,38.17
2023-02-11T03:26:24.373Z,33.53
2023-02-11T03:29:00.612Z,33.42
2023-02-11T03:31:48.240Z,35.80
2023-02-11T03:34:23.666Z,35.88
2023-02-11T03:36:58.372Z,36.28
2023-02-11T03:39:29.466Z,38.08
2023-02-11T03:44:33.115Z,36.20
2023-02-11T03:47:03.713Z,35.63
2023-02-11T03:49:34.738Z,37.65
2023-02-11T03:52:05.467Z,36.20
2023-02-11T03:57:03.481Z,33.03
2023-02-11T03:59:32.468Z,31.08
2023-02-11T04:02:02.524Z,34.70
2023-02-11T04:04:32.300Z,32.10
2023-02-11T04:06:59.431Z,34.87
2023-02-11T04:09:31.181Z,36.67
2023-02-11T04:12:04.826Z,33.85
2023-02-11T04:14:31.957Z,30.85
2023-02-11T04:16:59.132Z,34.28
2023-02-11T04:19:30.742Z,33.10
2023-02-11T04:21:58.000Z,33.13
2023-02-11T04:24:25.146Z,34.35
2023-02-11T04:26:54.120Z,33.33
2023-02-11T04:29:29.436Z,34.80
2023-02-11T04:32:01.656Z,35.17
2023-02-11T04:34:29.856Z,35.63
2023-02-11T04:36:59.514Z,35.90
2023-02-11T04:39:26.673Z,33.10
2023-02-11T04:41:56.436Z,34.75
2023-02-11T04:44:25.899Z,32.25
2023-02-11T04:46:55.192Z,31.75
2023-02-11T04:49:22.436Z,33.33
2023-02-11T04:51:52.298Z,29.33
2023-02-11T04:54:28.568Z,29.38
2023-02-11T04:56:58.323Z,28.48
2023-02-11T04:59:32.960Z,30.07
2023-02-11T05:02:03.058Z,28.45
2023-02-11T05:04:32.759Z,28.73
2023-02-11T05:07:04.463Z,29.03
2023-02-11T05:09:34.584Z,30.77
2023-02-11T05:15:02.872Z,30.10
2023-02-11T05:20:19.877Z,28.85
2023-02-11T05:22:52.874Z,29.20
2023-02-11T05:25:23.794Z,30.50
2023-02-11T05:27:54.817Z,30.98
2023-02-11T05:30:32.407Z,30.90
2023-02-11T05:33:01.807Z,28.52
2023-02-11T05:35:35.462Z,28.75
2023-02-11T05:38:02.697Z,29.40
2023-02-11T05:40:41.514Z,25.73
2023-02-11T05:43:18.816Z,27.15
2023-02-11T05:45:46.035Z,27.83
2023-02-11T05:48:15.262Z,27.52
2023-02-11T05:50:49.186Z,26.25
2023-02-11T05:53:16.365Z,21.95
2023-02-11T05:55:46.315Z,23.42
2023-02-11T05:58:16.224Z,27.50
2023-02-11T06:00:46.886Z,23.42
2023-02-11T06:05:58.335Z,28.63
2023-02-11T06:08:28.693Z,25.73
2023-02-11T06:11:01.398Z,26.10
2023-02-11T06:13:28.553Z,27.50
2023-02-11T06:16:05.216Z,27.30
2023-02-11T06:18:33.596Z,26.30
2023-02-11T06:21:01.168Z,27.48
2023-02-11T06:23:32.373Z,27.88
2023-02-11T06:26:06.923Z,25.63
2023-02-11T06:28:47.291Z,26.75
2023-02-11T06:31:17.581Z,26.75
2023-02-11T06:33:45.496Z,27.15
2023-02-11T06:36:27.815Z,24.75
2023-02-11T06:38:58.092Z,28.27
2023-02-11T06:41:25.253Z,26.80
2023-02-11T06:43:55.058Z,25.95
2023-02-11T06:46:27.311Z,25.93
2023-02-11T06:48:57.689Z,26.45
2023-02-11T06:51:29.558Z,25.95
2023-02-11T06:53:59.634Z,25.42
2023-02-11T06:56:28.357Z,25.65
2023-02-11T06:58:55.772Z,24.40
2023-02-11T07:01:26.580Z,24.10
2023-02-11T07:06:27.674Z,23.77
2023-02-11T07:08:55.515Z,24.23
2023-02-11T07:11:27.736Z,23.60
2023-02-11T07:14:00.272Z,24.38
2023-02-11T07:16:27.674Z,24.30
2023-02-11T07:18:55.694Z,25.27
2023-02-11T07:21:24.707Z,24.58
2023-02-11T07:23:51.834Z,22.77
2023-02-11T07:26:25.603Z,23.65
2023-02-11T07:28:53.221Z,24.05
2023-02-11T07:31:26.894Z,24.65
2023-02-11T07:33:57.702Z,25.23
2023-02-11T07:38:55.617Z,25.42
2023-02-11T07:41:26.736Z,24.38
2023-02-11T07:43:57.270Z,26.33
2023-02-11T07:49:20.288Z,25.23
2023-02-11T07:52:04.599Z,24.65
2023-02-11T07:54:31.753Z,25.60
2023-02-11T07:57:01.249Z,26.02
2023-02-11T07:59:29.936Z,25.40
2023-02-11T08:02:02.765Z,24.35
2023-02-11T08:04:29.986Z,25.67
2023-02-11T08:07:03.154Z,24.67
2023-02-11T08:09:34.496Z,25.98
2023-02-11T08:12:11.438Z,25.38
2023-02-11T08:14:43.076Z,25.02
2023-02-11T08:17:15.999Z,25.50
2023-02-11T08:19:43.195Z,23.98
2023-02-11T08:22:13.718Z,23.58
2023-02-11T08:24:52.504Z,23.30
2023-02-11T08:27:22.537Z,25.60
2023-02-11T08:29:55.971Z,26.67
2023-02-11T08:32:25.559Z,27.25
2023-02-11T08:34:56.284Z,26.83
2023-02-11T08:37:24.862Z,27.10
2023-02-11T08:40:02.383Z,25.70
2023-02-11T08:42:39.301Z,25.90
2023-02-11T08:45:07.616Z,26.02
2023-02-11T08:47:39.865Z,27.95
2023-02-11T08:50:16.200Z,23.95
2023-02-11T08:52:44.552Z,27.00
2023-02-11T08:55:18.947Z,27.25
2023-02-11T08:57:48.356Z,27.55
2023-02-11T09:00:16.446Z,27.38
2023-02-11T09:02:51.745Z,27.27
2023-02-11T09:05:25.591Z,26.25
2023-02-11T09:07:55.277Z,26.20
2023-02-11T09:10:24.598Z,25.02
2023-02-11T09:12:54.581Z,25.98
2023-02-11T09:15:36.154Z,24.33
2023-02-11T09:18:04.546Z,24.52
2023-02-11T09:20:35.475Z,26.73
2023-02-11T09:23:02.751Z,25.92
2023-02-11T09:25:44.768Z,25.77
2023-02-11T09:28:14.141Z,25.83
2023-02-11T09:30:43.582Z,26.27
2023-02-11T09:33:17.847Z,27.73
2023-02-11T09:35:48.118Z,24.95
2023-02-11T09:38:18.660Z,25.02
2023-02-11T09:40:46.423Z,26.67
2023-02-11T09:43:14.507Z,25.15
2023-02-11T09:45:46.663Z,26.10
2023-02-11T09:48:20.598Z,27.10
2023-02-11T09:50:54.992Z,26.90
2023-02-11T09:53:28.563Z,26.35
2023-02-11T09:56:19.725Z,26.13
2023-02-11T09:58:53.979Z,28.00
2023-02-11T10:01:36.564Z,27.88
2023-02-11T10:04:33.037Z,28.58
2023-02-11T10:07:15.846Z,27.20
2023-02-11T10:09:51.152Z,27.88
2023-02-11T10:12:33.284Z,27.25
2023-02-11T10:15:12.324Z,26.85
2023-02-11T10:17:46.425Z,26.70
2023-02-11T10:20:29.315Z,27.17
2023-02-11T10:23:01.340Z,27.33
2023-02-11T10:25:40.156Z,26.27
2023-02-11T10:28:22.325Z,24.73
2023-02-11T10:30:58.873Z,24.75
2023-02-11T10:33:36.009Z,23.80
2023-02-11T10:36:06.987Z,24.02
2023-02-11T10:38:43.788Z,24.58
2023-02-11T10:41:21.002Z,24.65
2023-02-11T10:43:54.678Z,23.90
2023-02-11T10:46:40.496Z,25.48
2023-02-11T10:49:08.348Z,23.65
2023-02-11T10:51:35.540Z,25.00
2023-02-11T10:54:13.902Z,23.70
2023-02-11T10:56:53.298Z,25.17
2023-02-11T10:59:31.560Z,22.92
2023-02-11T11:02:03.241Z,21.67
2023-02-11T11:04:39.257Z,24.30
2023-02-11T11:07:26.342Z,22.70
2023-02-11T11:09:55.530Z,21.90
2023-02-11T11:12:25.452Z,23.48
2023-02-11T11:15:02.253Z,23.77
2023-02-11T11:17:32.718Z,22.92
2023-02-11T11:20:24.559Z,23.65
2023-02-11T11:22:56.454Z,21.55
2023-02-11T11:25:27.923Z,23.17
2023-02-11T11:28:01.347Z,22.13
2023-02-11T11:30:46.422Z,22.40
2023-02-11T11:33:19.792Z,21.02
2023-02-11T11:35:56.143Z,22.73
2023-02-11T11:38:29.100Z,24.00
2023-02-11T11:41:18.716Z,23.23
2023-02-11T11:46:44.820Z,23.65
2023-02-11T11:49:32.401Z,22.52
2023-02-11T11:52:15.216Z,22.13
2023-02-11T11:54:44.280Z,22.85
2023-02-11T11:57:25.186Z,24.42
2023-02-11T11:59:56.506Z,23.60
2023-02-11T12:02:41.392Z,23.98
2023-02-11T12:05:19.580Z,22.67
2023-02-11T12:08:07.902Z,24.27
2023-02-11T12:10:35.071Z,20.48
2023-02-11T12:13:09.143Z,21.60
2023-02-11T12:16:01.848Z,23.35
2023-02-11T12:18:51.906Z,23.85
2023-02-11T12:21:45.917Z,22.85
2023-02-11T12:24:25.372Z,24.00
2023-02-11T12:27:02.782Z,23.25
2023-02-11T12:29:54.041Z,20.85
2023-02-11T12:32:54.680Z,21.92
2023-02-11T12:35:47.574Z,21.17
2023-02-11T12:38:33.577Z,21.20
2023-02-11T12:41:05.309Z,20.80
2023-02-11T12:43:37.357Z,21.33
2023-02-11T12:46:31.035Z,22.27
2023-02-11T12:49:16.898Z,20.17
2023-02-11T12:52:02.035Z,20.73
2023-02-11T12:54:51.795Z,22.77
2023-02-11T12:57:36.025Z,25.67
2023-02-11T13:00:09.312Z,23.25
2023-02-11T13:02:55.263Z,21.25
2023-02-11T13:05:42.770Z,21.45
2023-02-11T13:08:15.897Z,22.00
2023-02-11T13:10:50.125Z,22.20
2023-02-11T13:13:32.036Z,20.95
2023-02-11T13:16:13.591Z,22.00
2023-02-11T13:19:04.227Z,21.20
2023-02-11T13:21:36.136Z,20.88
2023-02-11T13:24:25.067Z,22.35
2023-02-11T13:27:05.883Z,24.80
2023-02-11T13:29:58.332Z,23.80
2023-02-11T13:32:25.510Z,22.55
2023-02-11T13:34:55.282Z,25.80
2023-02-11T13:37:22.575Z,23.63
2023-02-11T13:40:29.730Z,22.63
2023-02-11T13:43:03.695Z,23.10
2023-02-11T13:45:42.527Z,25.38
2023-02-11T13:48:45.298Z,23.60
2023-02-11T13:51:17.596Z,24.08
2023-02-11T13:53:54.353Z,23.85
2023-02-11T13:56:31.460Z,24.02
2023-02-11T13:59:01.883Z,24.42
2023-02-11T14:02:02.851Z,24.85
2023-02-11T14:04:49.195Z,22.20
2023-02-11T14:07:52.568Z,23.73
2023-02-11T14:10:41.055Z,24.15
2023-02-11T14:13:34.615Z,23.40
2023-02-11T14:16:05.399Z,26.48
2023-02-11T14:18:56.370Z,22.20
2023-02-11T14:21:32.478Z,19.88
2023-02-11T14:24:22.076Z,22.00
2023-02-11T14:27:05.681Z,19.30
2023-02-11T14:29:48.772Z,18.60
2023-02-11T14:32:48.966Z,18.88
2023-02-11T14:35:43.933Z,20.35
2023-02-11T14:38:11.130Z,17.70
2023-02-11T14:41:00.198Z,19.38
2023-02-11T14:43:39.773Z,19.80
2023-02-11T14:46:15.394Z,18.70
2023-02-11T14:48:53.400Z,19.83
2023-02-11T14:51:30.631Z,20.98
2023-02-11T14:54:26.754Z,19.77
2023-02-11T14:57:31.976Z,20.95
2023-02-11T15:00:10.782Z,19.75
2023-02-11T15:02:44.302Z,20.58
2023-02-11T15:05:27.348Z,20.73
2023-02-11T15:08:05.217Z,19.88
2023-02-11T15:10:36.574Z,19.58
2023-02-11T15:13:04.661Z,21.65
2023-02-11T15:15:38.114Z,19.92
2023-02-11T15:18:25.833Z,20.65
2023-02-11T15:20:58.366Z,21.08
2023-02-11T15:23:31.030Z,22.92
2023-02-11T15:26:02.936Z,21.05
2023-02-11T15:28:31.659Z,21.65
2023-02-11T15:31:02.665Z,21.27
2023-02-11T15:33:33.191Z,21.20
2023-02-11T15:36:04.202Z,22.08
2023-02-11T15:38:33.913Z,21.33
2023-02-11T15:43:54.826Z,20.38
2023-02-11T15:46:30.477Z,21.17
2023-02-11T15:49:01.175Z,21.85
2023-02-11T15:51:34.204Z,21.05
2023-02-11T15:54:10.383Z,20.80
2023-02-11T15:56:44.378Z,22.73
2023-02-11T15:59:20.563Z,24.75
2023-02-11T16:01:50.782Z,20.55
2023-02-11T16:04:29.837Z,21.33
2023-02-11T16:07:09.897Z,23.35
2023-02-11T16:09:39.862Z,24.58
2023-02-11T16:12:27.273Z,23.02
2023-02-11T16:15:02.919Z,24.23
2023-02-11T16:17:34.707Z,24.98
2023-02-11T16:20:06.608Z,22.35
2023-02-11T16:22:38.097Z,23.90
2023-02-11T16:25:05.859Z,23.98
2023-02-11T16:27:37.452Z,23.70
2023-02-11T16:30:28.856Z,24.98
2023-02-11T16:32:55.987Z,23.38
2023-02-11T16:35:25.733Z,25.17
2023-02-11T16:37:53.017Z,25.33
2023-02-11T16:40:27.884Z,23.70
2023-02-11T16:42:56.352Z,26.80
2023-02-11T16:45:24.952Z,25.77
2023-02-11T16:48:02.801Z,26.42
2023-02-11T16:50:32.206Z,26.38
2023-02-11T16:53:06.353Z,25.63
2023-02-11T16:55:35.155Z,24.17
2023-02-11T16:58:02.400Z,26.75
2023-02-11T17:00:30.016Z,27.02
2023-02-11T17:02:57.310Z,28.10
2023-02-11T17:05:27.883Z,32.75
2023-02-11T17:10:27.350Z,27.00
2023-02-11T17:12:57.604Z,28.30
2023-02-11T17:15:24.943Z,27.85
2023-02-11T17:18:03.480Z,28.38
2023-02-11T17:20:38.293Z,28.13
2023-02-11T17:23:11.892Z,26.98
2023-02-11T17:25:39.275Z,27.58
2023-02-11T17:28:14.211Z,27.98
2023-02-11T17:30:45.546Z,29.30
2023-02-11T17:33:16.176Z,30.15
2023-02-11T17:38:16.977Z,27.55
2023-02-11T17:40:44.156Z,30.58
2023-02-11T17:43:13.433Z,31.33
2023-02-11T17:45:46.417Z,32.08
2023-02-11T17:48:20.757Z,31.90
2023-02-11T17:50:54.272Z,33.35
2023-02-11T17:53:23.477Z,30.17
2023-02-11T17:55:51.058Z,28.58
2023-02-11T17:58:27.219Z,30.80
2023-02-11T18:01:02.543Z,29.52
2023-02-11T18:03:29.739Z,28.63
2023-02-11T18:06:06.675Z,28.55
2023-02-11T18:08:37.961Z,29.25
2023-02-11T18:11:15.156Z,28.58
2023-02-11T18:13:46.872Z,29.83
2023-02-11T18:16:15.793Z,27.27
2023-02-11T18:18:48.655Z,28.85
2023-02-11T18:21:22.818Z,28.45
2023-02-11T18:23:57.573Z,28.83
2023-02-11T18:26:28.156Z,29.33
2023-02-11T18:31:43.633Z,27.70
2023-02-11T18:34:12.050Z,30.17
2023-02-11T18:36:39.511Z,28.75
2023-02-11T18:39:11.538Z,29.52
2023-02-11T18:41:43.342Z,29.35
2023-02-11T18:44:12.068Z,28.95
2023-02-11T18:46:41.419Z,28.60
2023-02-11T18:49:09.795Z,30.60
2023-02-11T18:51:39.617Z,31.20
2023-02-11T18:54:10.097Z,27.48
2023-02-11T18:56:40.659Z,32.00
2023-02-11T19:01:42.799Z,28.45
2023-02-11T19:04:10.172Z,30.42
2023-02-11T19:06:45.472Z,30.58
2023-02-11T19:09:16.502Z,30.83
2023-02-11T19:11:54.564Z,30.63
2023-02-11T19:14:25.183Z,31.48
2023-02-11T19:16:55.620Z,32.67
2023-02-11T19:19:29.375Z,30.90
2023-02-11T19:22:03.363Z,32.30
2023-02-11T19:24:33.206Z,31.83
2023-02-11T19:27:03.122Z,34.10
2023-02-11T19:29:36.923Z,36.17
2023-02-11T19:32:07.464Z,34.58
2023-02-11T19:34:42.038Z,35.63
2023-02-11T19:37:12.439Z,34.03
2023-02-11T19:39:46.785Z,36.67
2023-02-11T19:42:14.282Z,38.65
2023-02-11T19:44:50.562Z,38.15
2023-02-11T19:47:19.687Z,36.65
2023-02-11T19:49:48.947Z,36.75
2023-02-11T19:52:16.166Z,37.40
2023-02-11T19:54:53.785Z,38.33
2023-02-11T19:57:31.576Z,38.45
2023-02-11T19:59:58.759Z,39.42
2023-02-11T20:02:28.617Z,37.47
2023-02-11T20:04:55.825Z,39.67
2023-02-11T20:07:25.527Z,40.90
2023-02-11T20:09:56.003Z,39.17
2023-02-11T20:12:29.175Z,40.72
2023-02-11T20:15:07.642Z,37.42
2023-02-11T20:17:37.421Z,41.80
2023-02-11T20:20:07.316Z,39.92
2023-02-11T20:22:42.523Z,39.92
2023-02-11T20:25:11.926Z,36.90
2023-02-11T20:27:42.296Z,39.90
2023-02-11T20:30:16.303Z,38.55
2023-02-11T20:32:45.918Z,35.25
2023-02-11T20:35:16.162Z,36.72
2023-02-11T20:37:44.243Z,38.13
2023-02-11T20:40:11.654Z,35.85
2023-02-11T20:42:42.212Z,35.28
2023-02-11T20:45:09.768Z,37.28
2023-02-11T20:47:40.724Z,36.40
2023-02-11T20:50:10.267Z,36.60
2023-02-11T20:52:43.847Z,35.47
2023-02-11T20:55:13.849Z,34.50
2023-02-11T20:57:53.783Z,33.65
2023-02-11T21:00:29.289Z,37.47
2023-02-11T21:03:01.285Z,36.00
2023-02-11T21:05:35.470Z,33.63
2023-02-11T21:08:05.406Z,33.05
2023-02-11T21:10:32.573Z,35.33
2023-02-11T21:13:04.990Z,33.03
2023-02-11T21:18:28.654Z,33.13
2023-02-11T21:20:58.727Z,35.03
2023-02-11T21:23:27.537Z,34.03
2023-02-11T21:26:01.925Z,31.13
2023-02-11T21:28:35.668Z,34.63
2023-02-11T21:31:03.699Z,32.65
2023-02-11T21:33:36.315Z,33.80
2023-02-11T21:39:10.565Z,34.38
2023-02-11T21:41:45.057Z,34.08
2023-02-11T21:44:17.960Z,32.75
2023-02-11T21:46:51.476Z,34.25
2023-02-11T21:49:26.075Z,32.17
2023-02-11T21:51:53.294Z,32.67
2023-02-11T21:54:27.445Z,34.70
2023-02-11T21:57:04.070Z,31.63
2023-02-11T21:59:39.736Z,34.88
2023-02-11T22:02:10.902Z,34.53
2023-02-11T22:04:42.037Z,35.72
2023-02-11T22:07:12.880Z,34.15
2023-02-11T22:09:45.967Z,35.78
2023-02-11T22:12:15.892Z,37.53
2023-02-11T22:14:47.271Z,37.70
2023-02-11T22:17:25.688Z,40.47
2023-02-11T22:19:57.688Z,37.55
2023-02-11T22:22:24.923Z,38.22
2023-02-11T22:24:52.190Z,38.20
2023-02-11T22:27:21.541Z,35.75
2023-02-11T22:29:50.285Z,32.55
2023-02-11T22:32:18.997Z,36.88
2023-02-11T22:34:53.732Z,34.50
2023-02-11T22:37:24.894Z,36.17
2023-02-11T22:39:52.995Z,34.28
2023-02-11T22:42:22.932Z,32.95
2023-02-11T22:44:53.786Z,34.40
2023-02-11T22:47:23.228Z,34.03
2023-02-11T22:49:50.527Z,35.75
2023-02-11T22:52:22.329Z,34.42
2023-02-11T22:54:57.452Z,34.05
2023-02-11T22:57:29.585Z,34.45
2023-02-11T23:05:40.867Z,35.55
2023-02-11T23:08:10.942Z,33.83
2023-02-11T23:13:28.596Z,34.88
2023-02-11T23:19:03.318Z,38.70
2023-02-11T23:21:31.794Z,39.53
2023-02-11T23:24:05.393Z,37.30
2023-02-11T23:26:37.925Z,35.03
2023-02-11T23:29:09.663Z,31.15
2023-02-11T23:31:45.174Z,33.10
2023-02-11T23:34:22.601Z,33.45
2023-02-11T23:36:49.838Z,33.08
2023-02-11T23:39:21.643Z,33.25
2023-02-11T23:41:53.496Z,31.60
2023-02-11T23:44:27.513Z,33.75
2023-02-11T23:46:54.692Z,30.95
2023-02-11T23:49:24.895Z,32.28
2023-02-11T23:51:56.580Z,30.88
2023-02-11T23:54:29.864Z,32.13
2023-02-11T23:56:59.743Z,33.35
2023-02-11T23:59:39.082Z,32.20
